Terminal Aerodrome Forecast
Issued by NWS

Home | Current Version | Previous Version | Text Only | Print | Product List | Glossary On
Versions: 1 2 3 4 5 6 7 8 9 10 11 12 13
000
FTUS44 KEPZ 301100 RRA
TAFLRU
TAF
KLRU 301142Z 3012/3112 12007KT P6SM FEW120 SCT150 OVC250
     FM301800 15006KT P6SM BKN100 OVC200
     FM302300 21009KT P6SM FEW070 BKN100 OVC200
     FM310600 27005KT P6SM SCT070 BKN090 OVC180=

USA.gov is the U.S. government's official web portal to all federal, state and local government web resources and services.